createdAt,value
2023-03-16T00:02:05.562Z,100.00
2023-03-16T00:04:37.446Z,100.00
2023-03-16T00:07:10.714Z,100.00
2023-03-16T00:09:41.955Z,100.00
2023-03-16T00:12:16.126Z,100.00
2023-03-16T00:14:48.568Z,100.00
2023-03-16T00:17:20.681Z,100.00
2023-03-16T00:19:57.422Z,100.00
2023-03-16T00:22:27.490Z,100.00
2023-03-16T00:24:55.334Z,100.00
2023-03-16T00:27:25.106Z,100.00
2023-03-16T00:29:56.131Z,100.00
2023-03-16T00:32:27.925Z,100.00
2023-03-16T00:34:55.880Z,100.00
2023-03-16T00:37:25.547Z,100.00
2023-03-16T00:39:56.122Z,100.00
2023-03-16T00:42:27.554Z,100.00
2023-03-16T00:44:58.475Z,100.00
2023-03-16T00:47:31.060Z,100.00
2023-03-16T00:49:58.922Z,100.00
2023-03-16T00:52:27.572Z,100.00
2023-03-16T00:54:55.579Z,100.00
2023-03-16T00:57:25.774Z,100.00
2023-03-16T00:59:53.226Z,100.00
2023-03-16T01:02:23.701Z,100.00
2023-03-16T01:04:52.189Z,100.00
2023-03-16T01:07:20.733Z,100.00
2023-03-16T01:09:48.593Z,100.00
2023-03-16T01:12:19.184Z,100.00
2023-03-16T01:14:47.381Z,100.00
2023-03-16T01:17:17.205Z,100.00
2023-03-16T01:19:45.283Z,100.00
2023-03-16T01:22:13.246Z,100.00
2023-03-16T01:24:41.323Z,100.00
2023-03-16T01:27:09.196Z,100.00
2023-03-16T01:29:37.589Z,100.00
2023-03-16T01:32:05.780Z,100.00
2023-03-16T01:34:33.724Z,100.00
2023-03-16T01:37:01.399Z,100.00
2023-03-16T01:39:49.774Z,100.00
2023-03-16T01:42:17.444Z,100.00
2023-03-16T01:45:02.196Z,100.00
2023-03-16T01:47:39.072Z,100.00
2023-03-16T01:50:11.715Z,100.00
2023-03-16T01:52:40.944Z,100.00
2023-03-16T01:55:13.455Z,100.00
2023-03-16T01:57:43.903Z,100.00
2023-03-16T02:00:19.806Z,100.00
2023-03-16T02:03:07.729Z,100.00
2023-03-16T02:05:54.354Z,100.00
2023-03-16T02:08:25.439Z,100.00
2023-03-16T02:10:54.733Z,100.00
2023-03-16T02:13:25.606Z,100.00
2023-03-16T02:15:53.605Z,100.00
2023-03-16T02:18:23.148Z,100.00
2023-03-16T02:21:25.506Z,100.00
2023-03-16T02:23:53.515Z,100.00
2023-03-16T02:26:47.728Z,100.00
2023-03-16T02:29:56.219Z,100.00
2023-03-16T02:32:27.108Z,100.00
2023-03-16T02:34:56.287Z,100.00
2023-03-16T02:37:24.866Z,100.00
2023-03-16T02:39:52.263Z,100.00
2023-03-16T02:42:23.824Z,100.00
2023-03-16T02:44:59.325Z,100.00
2023-03-16T02:47:37.107Z,100.00
2023-03-16T02:50:06.654Z,100.00
2023-03-16T02:52:35.508Z,100.00
2023-03-16T02:55:05.845Z,100.00
2023-03-16T02:57:33.773Z,100.00
2023-03-16T03:00:19.188Z,100.00
2023-03-16T03:02:50.130Z,100.00
2023-03-16T03:05:17.228Z,100.00
2023-03-16T03:07:44.688Z,100.00
2023-03-16T03:10:13.767Z,100.00
2023-03-16T03:12:41.241Z,100.00
2023-03-16T03:15:11.009Z,100.00
2023-03-16T03:17:57.481Z,100.00
2023-03-16T03:20:25.330Z,100.00
2023-03-16T03:22:54.292Z,100.00
2023-03-16T03:25:23.001Z,100.00
2023-03-16T03:27:54.656Z,100.00
2023-03-16T03:30:24.882Z,100.00
2023-03-16T03:32:52.687Z,100.00
2023-03-16T03:35:22.346Z,100.00
2023-03-16T03:37:50.185Z,100.00
2023-03-16T03:40:19.378Z,100.00
2023-03-16T03:42:51.372Z,100.00
2023-03-16T03:45:18.879Z,100.00
2023-03-16T03:47:46.335Z,100.00
2023-03-16T03:50:21.235Z,100.00
2023-03-16T03:53:19.203Z,100.00
2023-03-16T03:56:06.678Z,100.00
2023-03-16T03:58:34.109Z,100.00
2023-03-16T04:01:01.674Z,100.00
2023-03-16T04:03:31.106Z,100.00
2023-03-16T04:05:58.667Z,100.00
2023-03-16T04:08:26.065Z,100.00
2023-03-16T04:10:53.689Z,100.00
2023-03-16T04:13:21.748Z,100.00
2023-03-16T04:15:50.428Z,100.00
2023-03-16T04:18:22.155Z,100.00
2023-03-16T04:20:49.765Z,100.00
2023-03-16T04:23:21.978Z,100.00
2023-03-16T04:25:51.843Z,100.00
2023-03-16T04:28:22.049Z,100.00
2023-03-16T04:30:56.599Z,100.00
2023-03-16T04:33:32.324Z,100.00
2023-03-16T04:36:00.321Z,100.00
2023-03-16T04:38:29.808Z,100.00
2023-03-16T04:41:02.674Z,100.00
2023-03-16T04:43:35.002Z,100.00
2023-03-16T04:46:09.467Z,100.00
2023-03-16T04:48:37.215Z,100.00
2023-03-16T04:51:06.362Z,100.00
2023-03-16T04:53:38.048Z,100.00
2023-03-16T04:56:19.453Z,100.00
2023-03-16T04:58:56.848Z,100.00
2023-03-16T05:01:26.166Z,100.00
2023-03-16T05:03:59.611Z,100.00
2023-03-16T05:06:28.168Z,100.00
2023-03-16T05:08:56.232Z,100.00
2023-03-16T05:11:23.644Z,100.00
2023-03-16T05:13:57.222Z,100.00
2023-03-16T05:16:26.147Z,100.00
2023-03-16T05:18:54.110Z,100.00
2023-03-16T05:21:21.587Z,100.00
2023-03-16T05:23:58.869Z,100.00
2023-03-16T05:26:26.293Z,100.00
2023-03-16T05:28:54.167Z,100.00
2023-03-16T05:31:26.677Z,100.00
2023-03-16T05:33:58.422Z,100.00
2023-03-16T05:36:26.418Z,100.00
2023-03-16T05:38:59.360Z,100.00
2023-03-16T05:41:39.108Z,100.00
2023-03-16T05:44:29.404Z,100.00
2023-03-16T05:47:15.015Z,100.00
2023-03-16T05:49:46.156Z,100.00
2023-03-16T05:52:25.695Z,100.00
2023-03-16T05:54:54.643Z,100.00
2023-03-16T05:57:22.235Z,100.00
2023-03-16T05:59:52.797Z,100.00
2023-03-16T06:02:21.540Z,100.00
2023-03-16T06:04:49.015Z,100.00
2023-03-16T06:07:16.857Z,100.00
2023-03-16T06:09:44.267Z,100.00
2023-03-16T06:12:15.502Z,100.00
2023-03-16T06:14:43.895Z,100.00
2023-03-16T06:17:12.180Z,100.00
2023-03-16T06:19:41.718Z,100.00
2023-03-16T06:22:09.437Z,100.00
2023-03-16T06:24:36.885Z,100.00
2023-03-16T06:27:04.534Z,100.00
2023-03-16T06:29:37.593Z,100.00
2023-03-16T06:32:05.699Z,100.00
2023-03-16T06:34:34.447Z,100.00
2023-03-16T06:37:02.611Z,100.00
2023-03-16T06:39:30.968Z,100.00
2023-03-16T06:41:58.760Z,100.00
2023-03-16T06:44:25.885Z,100.00
2023-03-16T06:47:13.786Z,100.00
2023-03-16T06:49:41.269Z,100.00
2023-03-16T06:52:16.302Z,100.00
2023-03-16T06:54:43.739Z,100.00
2023-03-16T06:57:11.729Z,100.00
2023-03-16T06:59:39.120Z,100.00
2023-03-16T07:02:09.930Z,100.00
2023-03-16T07:04:37.402Z,100.00
2023-03-16T07:07:04.941Z,100.00
2023-03-16T07:09:32.869Z,100.00
2023-03-16T07:12:00.418Z,100.00
2023-03-16T07:14:28.037Z,100.00
2023-03-16T07:16:57.643Z,100.00
2023-03-16T07:19:26.159Z,100.00
2023-03-16T07:21:55.899Z,100.00
2023-03-16T07:24:24.277Z,100.00
2023-03-16T07:26:53.054Z,100.00
2023-03-16T07:29:30.803Z,100.00
2023-03-16T07:31:58.305Z,100.00
2023-03-16T07:34:32.956Z,100.00
2023-03-16T07:37:00.919Z,100.00
2023-03-16T07:39:31.736Z,100.00
2023-03-16T07:42:06.582Z,100.00
2023-03-16T07:44:52.029Z,100.00
2023-03-16T07:47:19.759Z,100.00
2023-03-16T07:49:47.216Z,100.00
2023-03-16T07:52:14.723Z,100.00
2023-03-16T07:54:43.372Z,100.00
2023-03-16T07:57:12.168Z,100.00
2023-03-16T07:59:42.689Z,100.00
2023-03-16T08:02:15.422Z,100.00
2023-03-16T08:04:43.849Z,100.00
2023-03-16T08:07:14.300Z,100.00
2023-03-16T08:10:04.706Z,100.00
2023-03-16T08:12:41.764Z,100.00
2023-03-16T08:15:10.414Z,100.00
2023-03-16T08:17:41.593Z,100.00
2023-03-16T08:20:15.128Z,100.00
2023-03-16T08:22:46.650Z,100.00
2023-03-16T08:25:16.590Z,100.00
2023-03-16T08:27:53.512Z,100.00
2023-03-16T08:30:22.556Z,100.00
2023-03-16T08:33:01.509Z,100.00
2023-03-16T08:35:30.687Z,100.00
2023-03-16T08:37:58.080Z,100.00
2023-03-16T08:40:25.518Z,100.00
2023-03-16T08:42:52.612Z,100.00
2023-03-16T08:45:20.692Z,100.00
2023-03-16T08:47:48.182Z,100.00
2023-03-16T08:50:16.556Z,100.00
2023-03-16T08:52:43.935Z,100.00
2023-03-16T08:55:11.309Z,100.00
2023-03-16T08:57:39.328Z,100.00
2023-03-16T09:00:14.766Z,100.00
2023-03-16T09:02:42.888Z,100.00
2023-03-16T09:05:15.415Z,100.00
2023-03-16T09:07:43.777Z,100.00
2023-03-16T09:10:14.511Z,100.00
2023-03-16T09:12:42.713Z,100.00
2023-03-16T09:15:13.748Z,100.00
2023-03-16T09:17:45.802Z,100.00
2023-03-16T09:20:22.307Z,100.00
2023-03-16T09:22:54.575Z,100.00
2023-03-16T09:25:22.489Z,100.00
2023-03-16T09:27:50.981Z,100.00
2023-03-16T09:30:18.916Z,100.00
2023-03-16T09:32:48.818Z,100.00
2023-03-16T09:35:16.394Z,100.00
2023-03-16T09:37:45.436Z,100.00
2023-03-16T09:40:30.523Z,100.00
2023-03-16T09:43:03.756Z,100.00
2023-03-16T09:45:45.575Z,100.00
2023-03-16T09:48:13.679Z,100.00
2023-03-16T09:50:48.636Z,100.00
2023-03-16T09:53:39.258Z,100.00
2023-03-16T09:56:22.532Z,100.00
2023-03-16T09:58:50.097Z,100.00
2023-03-16T10:01:39.486Z,100.00
2023-03-16T10:04:29.485Z,100.00
2023-03-16T10:07:20.119Z,100.00
2023-03-16T10:10:27.099Z,100.00
2023-03-16T10:12:59.177Z,100.00
2023-03-16T10:15:33.527Z,100.00
2023-03-16T10:18:27.250Z,100.00
2023-03-16T10:20:55.791Z,100.00
2023-03-16T10:23:25.339Z,100.00
2023-03-16T10:25:55.109Z,100.00
2023-03-16T10:28:34.737Z,100.00
2023-03-16T10:31:03.554Z,100.00
2023-03-16T10:33:34.004Z,100.00
2023-03-16T10:36:14.170Z,100.00
2023-03-16T10:38:46.999Z,100.00
2023-03-16T10:41:22.745Z,100.00
2023-03-16T10:43:51.877Z,100.00
2023-03-16T10:46:19.604Z,100.00
2023-03-16T10:48:59.917Z,100.00
2023-03-16T10:51:34.987Z,100.00
2023-03-16T10:54:15.268Z,100.00
2023-03-16T10:56:42.816Z,100.00
2023-03-16T10:59:29.438Z,100.00
2023-03-16T11:01:57.206Z,100.00
2023-03-16T11:04:25.200Z,100.00
2023-03-16T11:06:55.851Z,100.00
2023-03-16T11:09:27.778Z,100.00
2023-03-16T11:11:55.452Z,100.00
2023-03-16T11:14:28.329Z,100.00
2023-03-16T11:17:10.538Z,100.00
2023-03-16T11:19:49.659Z,100.00
2023-03-16T11:22:27.539Z,100.00
2023-03-16T11:25:02.265Z,100.00
2023-03-16T11:27:54.237Z,100.00
2023-03-16T11:30:21.814Z,100.00
2023-03-16T11:32:53.469Z,100.00
2023-03-16T11:35:22.754Z,100.00
2023-03-16T11:38:15.407Z,100.00
2023-03-16T11:41:09.239Z,100.00
2023-03-16T11:43:55.873Z,98.09
2023-03-16T11:46:48.143Z,88.07
2023-03-16T11:49:33.187Z,73.83
2023-03-16T11:52:17.141Z,74.99
2023-03-16T11:55:16.722Z,62.18
2023-03-16T11:58:20.913Z,55.57
2023-03-16T12:01:16.288Z,55.34
2023-03-16T12:03:58.385Z,50.34
2023-03-16T12:07:21.842Z,49.35
2023-03-16T12:10:05.978Z,46.12
2023-03-16T12:12:45.776Z,51.27
2023-03-16T12:15:32.542Z,48.21
2023-03-16T12:18:44.065Z,44.43
2023-03-16T12:21:23.313Z,42.46
2023-03-16T12:23:55.295Z,44.80
2023-03-16T12:26:29.818Z,42.35
2023-03-16T12:29:00.217Z,47.68
2023-03-16T12:31:34.288Z,51.18
2023-03-16T12:34:19.528Z,53.83
2023-03-16T12:36:46.946Z,53.23
2023-03-16T12:39:30.734Z,48.69
2023-03-16T12:42:44.958Z,47.42
2023-03-16T12:45:21.659Z,47.22
2023-03-16T12:47:52.472Z,42.85
2023-03-16T12:50:21.301Z,47.58
2023-03-16T12:52:51.879Z,45.86
2023-03-16T12:55:40.288Z,42.47
2023-03-16T12:58:08.700Z,42.22
2023-03-16T13:00:40.616Z,45.21
2023-03-16T13:03:15.367Z,44.06
2023-03-16T13:05:56.253Z,48.32
2023-03-16T13:08:23.801Z,56.85
2023-03-16T13:11:09.948Z,47.77
2023-03-16T13:13:52.906Z,55.30
2023-03-16T13:16:29.057Z,53.61
2023-03-16T13:18:57.366Z,45.22
2023-03-16T13:21:41.324Z,42.79
2023-03-16T13:24:20.192Z,39.46
2023-03-16T13:26:48.911Z,40.45
2023-03-16T13:29:27.583Z,52.49
2023-03-16T13:31:59.325Z,51.25
2023-03-16T13:34:39.255Z,50.37
2023-03-16T13:37:15.591Z,42.95
2023-03-16T13:39:55.103Z,37.97
2023-03-16T13:42:24.909Z,36.92
2023-03-16T13:44:57.902Z,40.83
2023-03-16T13:47:27.644Z,38.15
2023-03-16T13:50:00.140Z,34.58
2023-03-16T13:52:35.737Z,36.01
2023-03-16T13:55:11.935Z,38.90
2023-03-16T13:57:42.410Z,36.53
2023-03-16T14:00:26.449Z,41.52
2023-03-16T14:02:57.447Z,41.32
2023-03-16T14:05:30.789Z,44.10
2023-03-16T14:08:00.539Z,42.47
2023-03-16T14:10:33.324Z,46.86
2023-03-16T14:13:36.087Z,46.40
2023-03-16T14:16:25.869Z,46.99
2023-03-16T14:19:03.446Z,57.03
2023-03-16T14:21:37.114Z,44.23
2023-03-16T14:24:07.788Z,56.71
2023-03-16T14:26:44.457Z,52.96
2023-03-16T14:29:26.415Z,51.54
2023-03-16T14:31:54.588Z,56.21
2023-03-16T14:34:35.650Z,56.32
2023-03-16T14:37:17.049Z,63.79
2023-03-16T14:39:44.052Z,50.96
2023-03-16T14:42:30.685Z,57.77
2023-03-16T14:45:14.060Z,48.64
2023-03-16T14:47:47.684Z,47.69
2023-03-16T14:50:25.846Z,52.81
2023-03-16T14:52:55.982Z,49.35
2023-03-16T14:55:24.795Z,62.01
2023-03-16T14:57:53.141Z,60.67
2023-03-16T15:00:22.116Z,59.91
2023-03-16T15:03:01.504Z,64.30
2023-03-16T15:05:36.326Z,56.64
2023-03-16T15:08:04.962Z,60.74
2023-03-16T15:10:34.473Z,66.64
2023-03-16T15:13:07.396Z,64.92
2023-03-16T15:15:35.576Z,56.02
2023-03-16T15:18:02.646Z,54.94
2023-03-16T15:20:35.852Z,62.63
2023-03-16T15:23:04.855Z,64.74
2023-03-16T15:25:38.537Z,52.42
2023-03-16T15:28:20.368Z,64.52
2023-03-16T15:30:50.783Z,58.40
2023-03-16T15:33:18.437Z,62.03
2023-03-16T15:35:47.598Z,56.66
2023-03-16T15:38:29.657Z,59.05
2023-03-16T15:40:56.687Z,56.94
2023-03-16T15:43:28.845Z,51.11
2023-03-16T15:45:57.375Z,54.13
2023-03-16T15:48:25.375Z,67.36
2023-03-16T15:51:11.565Z,66.94
2023-03-16T15:53:50.893Z,66.38
2023-03-16T15:56:24.812Z,59.40
2023-03-16T15:58:52.708Z,59.08
2023-03-16T16:01:26.327Z,64.95
2023-03-16T16:03:55.411Z,63.05
2023-03-16T16:06:24.154Z,58.75
2023-03-16T16:08:52.320Z,57.38
2023-03-16T16:11:26.338Z,67.15
2023-03-16T16:13:55.853Z,76.84
2023-03-16T16:16:23.706Z,58.92
2023-03-16T16:18:50.827Z,69.97
2023-03-16T16:21:31.835Z,76.37
2023-03-16T16:23:59.006Z,61.46
2023-03-16T16:26:45.557Z,64.25
2023-03-16T16:29:19.252Z,65.99
2023-03-16T16:31:46.711Z,74.60
2023-03-16T16:34:21.109Z,61.50
2023-03-16T16:36:49.562Z,66.78
2023-03-16T16:39:16.976Z,66.42
2023-03-16T16:41:44.902Z,63.19
2023-03-16T16:44:25.237Z,64.05
2023-03-16T16:46:53.526Z,62.03
2023-03-16T16:49:26.491Z,65.47
2023-03-16T16:51:54.374Z,63.35
2023-03-16T16:54:28.426Z,62.88
2023-03-16T16:56:57.908Z,67.81
2023-03-16T16:59:29.368Z,81.68
2023-03-16T17:01:57.457Z,67.93
2023-03-16T17:04:27.459Z,64.43
2023-03-16T17:06:58.974Z,89.93
2023-03-16T17:09:28.803Z,68.06
2023-03-16T17:11:58.913Z,69.37
2023-03-16T17:14:31.167Z,76.27
2023-03-16T17:17:02.411Z,70.84
2023-03-16T17:19:29.490Z,87.89
2023-03-16T17:21:58.305Z,67.81
2023-03-16T17:24:26.339Z,93.35
2023-03-16T17:26:57.501Z,81.59
2023-03-16T17:29:27.178Z,75.68
2023-03-16T17:31:54.299Z,74.86
2023-03-16T17:34:24.774Z,81.97
2023-03-16T17:36:52.719Z,100.00
2023-03-16T17:39:25.954Z,93.97
2023-03-16T17:42:26.694Z,100.00
2023-03-16T17:44:54.319Z,89.56
2023-03-16T17:47:24.925Z,97.89
2023-03-16T17:49:52.832Z,95.54
2023-03-16T17:52:23.740Z,87.32
2023-03-16T17:54:52.901Z,100.00
2023-03-16T17:57:30.316Z,93.62
2023-03-16T17:59:58.731Z,100.00
2023-03-16T18:02:49.686Z,83.63
2023-03-16T18:05:26.479Z,88.10
2023-03-16T18:07:54.977Z,83.68
2023-03-16T18:10:29.695Z,80.50
2023-03-16T18:13:19.184Z,78.92
2023-03-16T18:15:47.846Z,83.03
2023-03-16T18:18:28.604Z,79.52
2023-03-16T18:20:57.662Z,74.71
2023-03-16T18:23:44.404Z,100.00
2023-03-16T18:26:11.647Z,100.00
2023-03-16T18:28:38.636Z,100.00
2023-03-16T18:31:07.764Z,90.55
2023-03-16T18:33:40.943Z,87.39
2023-03-16T18:36:17.655Z,80.35
2023-03-16T18:38:48.321Z,81.81
2023-03-16T18:41:27.543Z,100.00
2023-03-16T18:43:58.599Z,88.60
2023-03-16T18:46:35.759Z,100.00
2023-03-16T18:49:25.868Z,100.00
2023-03-16T18:51:54.552Z,100.00
2023-03-16T18:54:31.805Z,100.00
2023-03-16T18:56:59.763Z,98.95
2023-03-16T18:59:27.675Z,100.00
2023-03-16T19:01:55.207Z,100.00
2023-03-16T19:04:29.384Z,93.29
2023-03-16T19:06:57.584Z,100.00
2023-03-16T19:09:28.337Z,85.12
2023-03-16T19:11:55.767Z,100.00
2023-03-16T19:14:24.484Z,85.15
2023-03-16T19:16:53.070Z,100.00
2023-03-16T19:19:22.566Z,100.00
2023-03-16T19:22:02.683Z,100.00
2023-03-16T19:24:39.700Z,100.00
2023-03-16T19:27:21.470Z,100.00
2023-03-16T19:29:51.944Z,100.00
2023-03-16T19:32:21.383Z,100.00
2023-03-16T19:34:49.218Z,100.00
2023-03-16T19:37:19.620Z,100.00
2023-03-16T19:39:46.763Z,100.00
2023-03-16T19:42:26.368Z,100.00
2023-03-16T19:44:53.376Z,99.13
2023-03-16T19:47:33.647Z,100.00
2023-03-16T19:50:01.837Z,100.00
2023-03-16T19:52:31.208Z,100.00
2023-03-16T19:54:58.426Z,100.00
2023-03-16T19:57:26.469Z,100.00
2023-03-16T19:59:56.679Z,100.00
2023-03-16T20:02:28.065Z,100.00
2023-03-16T20:04:56.143Z,100.00
2023-03-16T20:07:23.482Z,100.00
2023-03-16T20:09:51.207Z,100.00
2023-03-16T20:12:22.557Z,100.00
2023-03-16T20:14:50.338Z,100.00
2023-03-16T20:17:29.268Z,100.00
2023-03-16T20:19:57.820Z,100.00
2023-03-16T20:22:28.413Z,100.00
2023-03-16T20:24:57.961Z,100.00
2023-03-16T20:27:27.657Z,100.00
2023-03-16T20:29:54.868Z,100.00
2023-03-16T20:32:25.898Z,100.00
2023-03-16T20:34:54.062Z,100.00
2023-03-16T20:37:27.846Z,100.00
2023-03-16T20:39:57.576Z,100.00
2023-03-16T20:42:34.318Z,100.00
2023-03-16T20:45:02.586Z,100.00
2023-03-16T20:47:29.950Z,100.00
2023-03-16T20:49:57.569Z,100.00
2023-03-16T20:52:30.072Z,100.00
2023-03-16T20:54:58.210Z,100.00
2023-03-16T20:57:27.503Z,100.00
2023-03-16T20:59:55.572Z,100.00
2023-03-16T21:02:29.023Z,100.00
2023-03-16T21:04:57.958Z,100.00
2023-03-16T21:07:25.396Z,100.00
2023-03-16T21:09:52.680Z,100.00
2023-03-16T21:12:32.180Z,100.00
2023-03-16T21:15:02.505Z,100.00
2023-03-16T21:17:32.850Z,100.00
2023-03-16T21:20:01.332Z,100.00
2023-03-16T21:22:31.532Z,100.00
2023-03-16T21:24:59.069Z,100.00
2023-03-16T21:27:29.725Z,100.00
2023-03-16T21:29:59.746Z,100.00
2023-03-16T21:32:28.316Z,100.00
2023-03-16T21:34:56.141Z,100.00
2023-03-16T21:37:27.828Z,100.00
2023-03-16T21:39:54.810Z,100.00
2023-03-16T21:42:22.606Z,100.00
2023-03-16T21:44:49.722Z,100.00
2023-03-16T21:47:28.582Z,100.00
2023-03-16T21:49:56.511Z,100.00
2023-03-16T21:52:30.277Z,100.00
2023-03-16T21:54:58.681Z,100.00
2023-03-16T21:57:26.244Z,100.00
2023-03-16T21:59:53.189Z,100.00
2023-03-16T22:02:26.119Z,100.00
2023-03-16T22:04:53.629Z,100.00
2023-03-16T22:07:23.060Z,100.00
2023-03-16T22:09:50.635Z,100.00
2023-03-16T22:12:18.441Z,100.00
2023-03-16T22:14:45.372Z,100.00
2023-03-16T22:17:22.555Z,100.00
2023-03-16T22:19:49.854Z,100.00
2023-03-16T22:22:17.727Z,100.00
2023-03-16T22:24:44.758Z,100.00
2023-03-16T22:27:26.014Z,100.00
2023-03-16T22:29:53.366Z,100.00
2023-03-16T22:32:22.748Z,100.00
2023-03-16T22:34:58.522Z,100.00
2023-03-16T22:37:27.921Z,100.00
2023-03-16T22:39:57.341Z,100.00
2023-03-16T22:42:38.337Z,100.00
2023-03-16T22:45:27.971Z,100.00
2023-03-16T22:47:56.536Z,100.00
2023-03-16T22:50:26.654Z,100.00
2023-03-16T22:52:58.586Z,100.00
2023-03-16T22:55:31.564Z,100.00
2023-03-16T22:58:28.347Z,100.00
2023-03-16T23:00:55.483Z,100.00
2023-03-16T23:03:23.851Z,100.00
2023-03-16T23:05:51.975Z,100.00
2023-03-16T23:08:23.394Z,100.00
2023-03-16T23:10:53.590Z,100.00
2023-03-16T23:13:24.462Z,100.00
2023-03-16T23:15:53.553Z,100.00
2023-03-16T23:18:26.104Z,100.00
2023-03-16T23:20:53.311Z,100.00
2023-03-16T23:23:21.273Z,100.00
2023-03-16T23:25:48.564Z,100.00
2023-03-16T23:28:23.649Z,100.00
2023-03-16T23:30:50.983Z,100.00
2023-03-16T23:33:18.384Z,100.00
2023-03-16T23:35:46.741Z,100.00
2023-03-16T23:38:14.414Z,100.00
2023-03-16T23:40:41.820Z,100.00
2023-03-16T23:43:09.343Z,100.00
2023-03-16T23:45:46.534Z,100.00
2023-03-16T23:48:18.031Z,100.00
2023-03-16T23:50:48.688Z,100.00
2023-03-16T23:53:18.584Z,100.00
2023-03-16T23:55:46.725Z,100.00
2023-03-16T23:58:16.278Z,100.00
